Terminal Aerodrome Forecast
Issued by NWS

Home | Current Version | Previous Version | Text Only | Print | Product List | Glossary On
Versions: 1 2 3 4 5 6 7 8 9 10 11 12 13 14
000
FTUS45 KRIW 191120
TAFCOD
TAF
KCOD 191120Z 1912/2012 20006KT P6SM BKN200
     FM191600 04008KT P6SM SCT100 BKN200
     FM200100 36011KT P6SM SCT070 BKN100
     FM201000 36012G18KT P6SM BKN070
      AMD LTD TO CLD VIS AND WIND=

USA.gov is the U.S. government's official web portal to all federal, state and local government web resources and services.